RJKN(METAR)
12/11 17:00
RJKN 110800Z 18016KT 9999 RA FEW015 SCT030 BKNXXX 23/21 Q1013 RMK
A2994=
戻る
トップページへ戻る
IMOC Co,.Ltd.